Oakdale, NY (11769)

11:18 AM EDT on July 28, 2016 (GMT -0400)
Shore Drive | | Change Station

Elev 13 ft 40.73 °N, 73.16 °W | Updated 3 minutes ago

Mostly Cloudy
Mostly Cloudy
83.8 °F
Feels Like 92 °F
N
1.2
Wind Variable Wind from SW
Gusts 2.5 mph

Today
High -- | Low -- °F
--% Chance of Precip.
Yesterday
High -- | Low -- °F
Precip. -- in
Pressure 29.91 in
Visibility 10.0 miles
Clouds Few 2500 ft
Few 5000 ft
Mostly Cloudy 25000 ft
Heat Index 92 °F
Dew Point 75 °F
Humidity 75%
Rainfall 0.00 in
Snow Depth Not available.
5:45 AM 8:11 PM
Waning Crescent, 31% visible
METAR KISP 281456Z VRB03KT 10SM FEW025 FEW050 BKN250 32/16 A2991 RMK AO2 SLP127 T03220161 58003
Pressure 29.91 in
Visibility 10.0 miles
Clouds Few 2500 ft
Few 5000 ft
Mostly Cloudy 25000 ft
Heat Index 92 °F
Dew Point 75 °F
Humidity 75%
Rainfall 0.00 in
Snow Depth Not available.
5:45 AM 8:11 PM
Waning Crescent, 31% visible
METAR KISP 281456Z VRB03KT 10SM FEW025 FEW050 BKN250 32/16 A2991 RMK AO2 SLP127 T03220161 58003

10-Day Weather Forecast

Almanac

Astronomy

Jul. 28, 2016 Rise Set
Actual Time
Civil Twilight
Nautical Twilight
Astronomical Twilight
Moon
Length of Visible Light
Length of Day
Tomorrow will be .
, % of the Moon is Illuminated

Today's Extremes

State Highs State Lows

Community

WunderPhotos

Upload Photos

1,928,120 photos uploaded!

WunderBlog® & News

Nearby

Air Quality

  Air Quality AQ Index Pollutant
Not available.

Snow Depth

Station Depth Elevation

Earthquake Activity

City Distance Mag. Time & Date
Minimum magnitude displayed is 2.5.

Coastal Water Temperatures

Place Temperature

Stations

Nearby Weather Stations

Station Location Temp. Windchill Dew Point Humidity Wind Precip. Elev Updated Type
                   

Watches & Warnings

There are currently no watches in effect.